Terminal Aerodrome Forecast
Issued by NWS

Home | Current Version | Previous Version | Text Only | Print | Product List | Glossary On
Versions: 1 2 3 4 5 6 7 8 9 10 11 12 13 14 15 16
396
FTUS41 KGYX 171742
TAFRKD
TAF
KRKD 171742Z 1718/1818 03006KT 1/2SM SN OVC008
     FM172300 VRB03KT 3SM -SN BR SCT003 OVC008
     FM180400 VRB03KT P6SM SCT050
      AMD NOT SKED=

USA.gov is the U.S. government's official web portal to all federal, state and local government web resources and services.